Home > Products > Valid Products > TAF

000
FTUS43 KGLD 231720
TAFMCK
TAF
KMCK 231720Z 2318/2418 33027G36KT P6SM BKN100
     FM240000 31017G25KT P6SM SCT100
     FM240800 29017KT P6SM SCT040 BKN100
     FM241600 31022G30KT P6SM FEW150=



000
FTUS43 KGLD 231720
TAFGLD
TAF
KGLD 231720Z 2318/2418 35029G39KT P6SM BKN100
     FM240000 33016G24KT P6SM SCT100
     FM240900 30018KT P6SM FEW150
     FM241600 32020G28KT P6SM SCT080 BKN150=



000
FTUS43 KGLD 231720
TAFMCK
TAF
KMCK 231720Z 2318/2418 33027G36KT P6SM BKN100
     FM240000 31017G25KT P6SM SCT100
     FM240800 29017KT P6SM SCT040 BKN100
     FM241600 31022G30KT P6SM FEW150=



000
FTUS43 KGLD 231557 AAA
TAFMCK
TAF AMD
KMCK 231557Z 2316/2412 35022G32KT P6SM OVC100
     FM231800 33028G38KT P6SM SCT100
     FM240000 31018G26KT P6SM SCT200
     FM240800 29017KT P6SM SCT040=



000
FTUS43 KGLD 231557 AAA
TAFMCK
TAF AMD
KMCK 231557Z 2316/2412 35022G32KT P6SM OVC100
     FM231800 33028G38KT P6SM SCT100
     FM240000 31018G26KT P6SM SCT200
     FM240800 29017KT P6SM SCT040=



000
FTUS43 KGLD 231552 AAA
TAFGLD
TAF AMD
KGLD 231552Z 2316/2412 35023G33KT P6SM BKN100
     FM231800 35031G41KT P6SM SCT100
     FM240000 31017G25KT P6SM SCT150
     FM240900 30018KT P6SM FEW150=



000
FTUS43 KGLD 231552 AAA
TAFGLD
TAF AMD
KGLD 231552Z 2316/2412 35023G33KT P6SM BKN100
     FM231800 35031G41KT P6SM SCT100
     FM240000 31017G25KT P6SM SCT150
     FM240900 30018KT P6SM FEW150=



000
FTUS43 KGLD 231130
TAFMCK
TAF
KMCK 231130Z 2312/2412 34025G35KT P6SM VCSH SCT050 OVC080
     FM231800 31028G38KT P6SM SCT040 BKN120
     FM240000 31020G28KT P6SM SCT200
     FM240600 31016G24KT P6SM BKN040=



000
FTUS43 KGLD 231130
TAFGLD
TAF
KGLD 231130Z 2312/2412 35023G35KT P6SM VCSH SCT030 BKN100
     FM231800 33025G35KT P6SM FEW040 BKN150
     FM240000 31019G26KT P6SM SCT120=



000
FTUS43 KGLD 231130
TAFMCK
TAF
KMCK 231130Z 2312/2412 34025G35KT P6SM VCSH SCT050 OVC080
     FM231800 31028G38KT P6SM SCT040 BKN120
     FM240000 31020G28KT P6SM SCT200
     FM240600 31016G24KT P6SM BKN040=



000
FTUS43 KGLD 230520
TAFMCK
TAF
KMCK 230520Z 2306/2406 28012KT P6SM BKN100
     FM230900 32012G18KT P6SM BKN080
     FM231200 34025G35KT P6SM -SHSNRA SCT050 OVC080
     FM231800 31028G38KT P6SM SCT040 BKN100=



000
FTUS43 KGLD 230520
TAFGLD
TAF
KGLD 230520Z 2306/2406 26011KT P6SM BKN100
     FM230800 31010G18KT P6SM BKN080
     FM231100 34028G38KT P6SM -SHSNRA SCT040 OVC080
     FM231800 33028G38KT P6SM SCT040 BKN080=



000
FTUS43 KGLD 230520
TAFMCK
TAF
KMCK 230520Z 2306/2406 28012KT P6SM BKN100
     FM230900 32012G18KT P6SM BKN080
     FM231200 34025G35KT P6SM -SHSNRA SCT050 OVC080
     FM231800 31028G38KT P6SM SCT040 BKN100=



000
FTUS43 KGLD 222320
TAFGLD
TAF
KGLD 222320Z 2300/2324 21010G16KT P6SM BKN200
     FM230500 26011KT P6SM BKN100
     FM230800 31010G18KT P6SM BKN080
     FM231100 34028G38KT P6SM -SHSNRA SCT030 OVC060=



000
FTUS43 KGLD 222320
TAFMCK
TAF
KMCK 222320Z 2300/2324 19012G18KT P6SM BKN200
     FM230600 28012KT P6SM BKN100
     FM230900 32012G18KT P6SM BKN080
     FM231200 34025G35KT P6SM -SHSNRA SCT050 OVC080=



000
FTUS43 KGLD 222320
TAFMCK
TAF
KMCK 222320Z 2300/2324 19012G18KT P6SM BKN200
     FM230600 28012KT P6SM BKN100
     FM230900 32012G18KT P6SM BKN080
     FM231200 34025G35KT P6SM -SHSNRA SCT050 OVC080=



000
FTUS43 KGLD 221739
TAFGLD
TAF
KGLD 221739Z 2218/2318 21015G23KT P6SM SKC
     FM222200 19012KT P6SM BKN200
     FM230200 23007KT P6SM BKN150
     FM230600 31012KT P6SM BKN120
     FM231100 34022G35KT P6SM -SN SCT030 OVC060=



000
FTUS43 KGLD 221739
TAFMCK
TAF
KMCK 221739Z 2218/2318 VRB06KT P6SM SKC
     FM222000 19010KT P6SM BKN200
     FM230600 31012KT P6SM BKN150
     FM231100 34020G30KT P6SM -SN SCT050 OVC080=



000
FTUS43 KGLD 221739
TAFMCK
TAF
KMCK 221739Z 2218/2318 VRB06KT P6SM SKC
     FM222000 19010KT P6SM BKN200
     FM230600 31012KT P6SM BKN150
     FM231100 34020G30KT P6SM -SN SCT050 OVC080=



000
FTUS43 KGLD 221128
TAFMCK
TAF
KMCK 221128Z 2212/2312 26010KT P6SM SKC
     FM222100 19010KT P6SM BKN200
     FM230900 31012G17KT P6SM SCT050 BKN120=



000
FTUS43 KGLD 221128
TAFGLD
TAF
KGLD 221128Z 2212/2312 24010KT P6SM SKC
     FM222200 25012KT P6SM BKN200
     FM230600 32012G19KT P6SM SCT050 BKN120=



000
FTUS43 KGLD 221128
TAFMCK
TAF
KMCK 221128Z 2212/2312 26010KT P6SM SKC
     FM222100 19010KT P6SM BKN200
     FM230900 31012G17KT P6SM SCT050 BKN120=



000
FTUS43 KGLD 220520
TAFMCK
TAF
KMCK 220520Z 2206/2306 25008KT P6SM SKC
      TEMPO 2208/2212 4SM BR SCT020
     FM221400 20010KT P6SM SCT150
     FM222300 24006KT P6SM BKN150=



000
FTUS43 KGLD 220520
TAFMCK
TAF
KMCK 220520Z 2206/2306 25008KT P6SM SKC
      TEMPO 2208/2212 4SM BR SCT020
     FM221400 20010KT P6SM SCT150
     FM222300 24006KT P6SM BKN150=



000
FTUS43 KGLD 220520
TAFGLD
TAF
KGLD 220520Z 2206/2306 24010KT P6SM SKC
     FM221200 21010KT P6SM SCT150
     FM222200 25010KT P6SM BKN150=



000
FTUS43 KGLD 220221 AAA
TAFMCK
TAF AMD
KMCK 220221Z 2202/2224 18010KT P6SM SCT250
     FM220600 25008KT P6SM SKC
     FM221400 20010KT P6SM SCT150=



000
FTUS43 KGLD 220221 AAA
TAFMCK
TAF AMD
KMCK 220221Z 2202/2224 18010KT P6SM SCT250
     FM220600 25008KT P6SM SKC
     FM221400 20010KT P6SM SCT150=



000
FTUS43 KGLD 212320
TAFGLD
TAF
KGLD 212320Z 2200/2224 20010KT P6SM SCT150
     FM220500 24010KT P6SM SKC
     FM221200 21010KT P6SM SCT150=



000
FTUS43 KGLD 212320
TAFMCK
TAF
KMCK 212320Z 2200/2224 18010KT P6SM SCT250
      TEMPO 2202/2204 BKN020
     FM220600 25008KT P6SM SKC
     FM221400 20010KT P6SM SCT150=



000
FTUS43 KGLD 212320
TAFMCK
TAF
KMCK 212320Z 2200/2224 18010KT P6SM SCT250
      TEMPO 2202/2204 BKN020
     FM220600 25008KT P6SM SKC
     FM221400 20010KT P6SM SCT150=



000
FTUS43 KGLD 211725
TAFMCK
TAF
KMCK 211725Z 2118/2218 18010KT P6SM SCT250
     FM220100 16006KT P6SM SCT015
     FM220600 25007KT P6SM SKC=



000
FTUS43 KGLD 211725
TAFGLD
TAF
KGLD 211725Z 2118/2218 20011G18KT P6SM FEW250
     FM220000 20007KT P6SM SCT150
     FM220500 24010KT P6SM SKC=



000
FTUS43 KGLD 211725
TAFMCK
TAF
KMCK 211725Z 2118/2218 18010KT P6SM SCT250
     FM220100 16006KT P6SM SCT015
     FM220600 25007KT P6SM SKC=



000
FTUS43 KGLD 211120
TAFMCK
TAF
KMCK 211120Z 2112/2212 VRB04KT P6SM SCT100 BKN150
     FM211500 18011KT P6SM SCT250
     FM220000 VRB05KT P6SM SCT150=



000
FTUS43 KGLD 211120
TAFMCK
TAF
KMCK 211120Z 2112/2212 VRB04KT P6SM SCT100 BKN150
     FM211500 18011KT P6SM SCT250
     FM220000 VRB05KT P6SM SCT150=



000
FTUS43 KGLD 211120
TAFGLD
TAF
KGLD 211120Z 2112/2212 19010KT P6SM SCT100 BKN150
     FM211700 20011G18KT P6SM FEW250
     FM220100 23008KT P6SM SCT150=



000
FTUS43 KGLD 210924 AAA
TAFMCK
TAF AMD
KMCK 210924Z 2109/2206 VRB05KT P6SM SCT100 BKN150
     FM220000 VRB05KT P6SM SCT150=



000
FTUS43 KGLD 210924 AAA
TAFMCK
TAF AMD
KMCK 210924Z 2109/2206 VRB05KT P6SM SCT100 BKN150
     FM220000 VRB05KT P6SM SCT150=



000
FTUS43 KGLD 210520
TAFMCK
TAF
KMCK 210520Z 2106/2206 13005KT P6SM BKN200
     FM210900 15007KT 5SM BR SCT020 BKN150
     FM211500 18008KT P6SM BKN150
     FM220000 21005KT P6SM SCT150=



000
FTUS43 KGLD 210520
TAFMCK
TAF
KMCK 210520Z 2106/2206 13005KT P6SM BKN200
     FM210900 15007KT 5SM BR SCT020 BKN150
     FM211500 18008KT P6SM BKN150
     FM220000 21005KT P6SM SCT150=



000
FTUS43 KGLD 210520
TAFGLD
TAF
KGLD 210520Z 2106/2206 15010KT P6SM BKN250
     FM210700 19009KT P6SM BKN150
     FM211700 22010KT P6SM SCT150=



000
FTUS43 KGLD 202320
TAFGLD
TAF
KGLD 202320Z 2100/2124 11007KT P6SM SCT250
     FM210300 15010KT P6SM BKN250
     FM210700 19009KT P6SM BKN150=



000
FTUS43 KGLD 202320
TAFMCK
TAF
KMCK 202320Z 2100/2124 11006KT P6SM SCT250
     FM210300 15005KT P6SM FEW020 BKN200
     FM210700 18007KT 5SM BR SCT020 BKN150
     FM211500 19008KT P6SM BKN130=



000
FTUS43 KGLD 202320
TAFMCK
TAF
KMCK 202320Z 2100/2124 11006KT P6SM SCT250
     FM210300 15005KT P6SM FEW020 BKN200
     FM210700 18007KT 5SM BR SCT020 BKN150
     FM211500 19008KT P6SM BKN130=



    US Dept of Commerce
    National Oceanic and Atmospheric Administration
    National Weather Service
    1325 East West Highway
    Silver Spring, MD 20910
    Page Author: NWS Internet Services Team
Disclaimer
Information Quality
Credits
Glossary
Privacy Policy
Freedom of Information Act (FOIA)
About Us
Career Opportunities